sensor_id;sensor_type;location;lat;lon;timestamp;pressure;altitude;pressure_sealevel;temperature;humidity
37132;BME280;23035;50.032;21.978;2023-07-20T00:03:10;67320.72;;;20.39;100.00
37132;BME280;23035;50.032;21.978;2023-07-20T00:08:16;67255.75;;;19.73;100.00
37132;BME280;23035;50.032;21.978;2023-07-20T00:13:21;67285.94;;;19.99;100.00
37132;BME280;23035;50.032;21.978;2023-07-20T00:18:25;67220.66;;;19.40;100.00
37132;BME280;23035;50.032;21.978;2023-07-20T00:23:31;67264.94;;;19.82;100.00
37132;BME280;23035;50.032;21.978;2023-07-20T00:28:37;67226.66;;;19.48;100.00
37132;BME280;23035;50.032;21.978;2023-07-20T00:33:42;67193.09;;;19.14;100.00
37132;BME280;23035;50.032;21.978;2023-07-20T00:38:48;67219.09;;;19.41;100.00
37132;BME280;23035;50.032;21.978;2023-07-20T00:43:52;67196.97;;;19.20;100.00
37132;BME280;23035;50.032;21.978;2023-07-20T00:48:56;67169.97;;;18.95;100.00
37132;BME280;23035;50.032;21.978;2023-07-20T00:54:01;67183.94;;;19.05;100.00
37132;BME280;23035;50.032;21.978;2023-07-20T00:59:05;67230.38;;;19.49;100.00
37132;BME280;23035;50.032;21.978;2023-07-20T01:04:09;67239.69;;;19.63;100.00
37132;BME280;23035;50.032;21.978;2023-07-20T01:09:18;67295.31;;;20.15;100.00
37132;BME280;23035;50.032;21.978;2023-07-20T01:14:23;67325.97;;;20.39;100.00
37132;BME280;23035;50.032;21.978;2023-07-20T01:19:27;67234.19;;;19.55;100.00
37132;BME280;23035;50.032;21.978;2023-07-20T01:24:42;67164.63;;;18.92;100.00
37132;BME280;23035;50.032;21.978;2023-07-20T01:30:08;67200.78;;;19.26;100.00
37132;BME280;23035;50.032;21.978;2023-07-20T01:35:16;67142.38;;;18.66;100.00
37132;BME280;23035;50.032;21.978;2023-07-20T01:40:22;67172.06;;;18.94;100.00
37132;BME280;23035;50.032;21.978;2023-07-20T01:45:28;67038.94;;;17.73;100.00
37132;BME280;23035;50.032;21.978;2023-07-20T01:50:33;67160.25;;;18.85;100.00
37132;BME280;23035;50.032;21.978;2023-07-20T01:55:37;67208.28;;;19.31;100.00
37132;BME280;23035;50.032;21.978;2023-07-20T02:00:41;67270.34;;;19.87;100.00
37132;BME280;23035;50.032;21.978;2023-07-20T02:05:46;67234.84;;;19.58;100.00
37132;BME280;23035;50.032;21.978;2023-07-20T02:10:50;67239.69;;;19.63;100.00
37132;BME280;23035;50.032;21.978;2023-07-20T02:15:54;67249.94;;;19.72;100.00
37132;BME280;23035;50.032;21.978;2023-07-20T02:20:59;67237.47;;;19.58;100.00
37132;BME280;23035;50.032;21.978;2023-07-20T02:26:03;67177.00;;;19.01;100.00
37132;BME280;23035;50.032;21.978;2023-07-20T02:31:07;67195.88;;;19.19;100.00
37132;BME280;23035;50.032;21.978;2023-07-20T02:36:12;67241.25;;;19.62;100.00
37132;BME280;23035;50.032;21.978;2023-07-20T02:41:16;67222.25;;;19.41;100.00
37132;BME280;23035;50.032;21.978;2023-07-20T02:46:20;67247.66;;;19.65;100.00
37132;BME280;23035;50.032;21.978;2023-07-20T02:51:26;67236.50;;;19.62;100.00
37132;BME280;23035;50.032;21.978;2023-07-20T02:56:29;67224.97;;;19.44;100.00
37132;BME280;23035;50.032;21.978;2023-07-20T03:01:33;67234.75;;;19.56;100.00
37132;BME280;23035;50.032;21.978;2023-07-20T03:06:38;67260.63;;;19.77;100.00
37132;BME280;23035;50.032;21.978;2023-07-20T03:11:42;67177.47;;;18.99;100.00
37132;BME280;23035;50.032;21.978;2023-07-20T03:16:47;67167.28;;;18.92;100.00
37132;BME280;23035;50.032;21.978;2023-07-20T03:21:52;67270.28;;;19.84;100.00
37132;BME280;23035;50.032;21.978;2023-07-20T03:26:56;67152.09;;;18.75;100.00
37132;BME280;23035;50.032;21.978;2023-07-20T03:32:00;67275.25;;;19.94;100.00
37132;BME280;23035;50.032;21.978;2023-07-20T03:37:05;67130.56;;;18.57;100.00
37132;BME280;23035;50.032;21.978;2023-07-20T03:42:09;67175.44;;;19.02;100.00
37132;BME280;23035;50.032;21.978;2023-07-20T03:47:13;67151.00;;;18.74;100.00
37132;BME280;23035;50.032;21.978;2023-07-20T03:52:18;67199.06;;;19.19;100.00
37132;BME280;23035;50.032;21.978;2023-07-20T03:57:22;67193.66;;;19.14;100.00
37132;BME280;23035;50.032;21.978;2023-07-20T04:02:26;67206.13;;;19.29;100.00
37132;BME280;23035;50.032;21.978;2023-07-20T04:07:31;67240.72;;;19.61;100.00
37132;BME280;23035;50.032;21.978;2023-07-20T04:12:35;67256.50;;;19.81;100.00
37132;BME280;23035;50.032;21.978;2023-07-20T04:17:39;67179.75;;;19.06;100.00
37132;BME280;23035;50.032;21.978;2023-07-20T04:22:44;67123.47;;;18.48;100.00
37132;BME280;23035;50.032;21.978;2023-07-20T04:27:50;67090.66;;;18.20;100.00
37132;BME280;23035;50.032;21.978;2023-07-20T04:32:55;67215.72;;;19.33;100.00
37132;BME280;23035;50.032;21.978;2023-07-20T04:38:04;67078.69;;;18.06;100.00
37132;BME280;23035;50.032;21.978;2023-07-20T04:43:12;67125.75;;;18.55;100.00
37132;BME280;23035;50.032;21.978;2023-07-20T04:48:20;67095.44;;;18.22;100.00
37132;BME280;23035;50.032;21.978;2023-07-20T04:53:31;66980.56;;;17.13;100.00
37132;BME280;23035;50.032;21.978;2023-07-20T04:58:39;66927.78;;;16.66;100.00
37132;BME280;23035;50.032;21.978;2023-07-20T05:03:46;66937.44;;;16.73;100.00
37132;BME280;23035;50.032;21.978;2023-07-20T05:08:54;66847.97;;;15.88;100.00
37132;BME280;23035;50.032;21.978;2023-07-20T05:14:00;66935.25;;;16.71;100.00
37132;BME280;23035;50.032;21.978;2023-07-20T05:19:05;66888.75;;;16.22;100.00
37132;BME280;23035;50.032;21.978;2023-07-20T05:24:10;66801.72;;;15.47;100.00
37132;BME280;23035;50.032;21.978;2023-07-20T05:29:14;66785.56;;;15.32;100.00
37132;BME280;23035;50.032;21.978;2023-07-20T05:34:18;66750.13;;;15.01;100.00
37132;BME280;23035;50.032;21.978;2023-07-20T05:39:24;66778.50;;;15.23;100.00
37132;BME280;23035;50.032;21.978;2023-07-20T05:44:28;66809.72;;;15.52;100.00
37132;BME280;23035;50.032;21.978;2023-07-20T05:49:32;66797.41;;;15.43;100.00
37132;BME280;23035;50.032;21.978;2023-07-20T05:54:37;66876.06;;;16.17;100.00
37132;BME280;23035;50.032;21.978;2023-07-20T05:59:41;66936.44;;;16.74;100.00
37132;BME280;23035;50.032;21.978;2023-07-20T06:04:46;66967.69;;;17.04;100.00
37132;BME280;23035;50.032;21.978;2023-07-20T06:09:51;66947.13;;;16.82;100.00
37132;BME280;23035;50.032;21.978;2023-07-20T06:14:55;66974.22;;;17.12;100.00
37132;BME280;23035;50.032;21.978;2023-07-20T06:19:59;67035.00;;;17.65;100.00
37132;BME280;23035;50.032;21.978;2023-07-20T06:25:06;66951.50;;;16.88;100.00
37132;BME280;23035;50.032;21.978;2023-07-20T06:30:10;67020.97;;;17.52;100.00
37132;BME280;23035;50.032;21.978;2023-07-20T06:35:15;67020.03;;;17.56;100.00
37132;BME280;23035;50.032;21.978;2023-07-20T06:40:21;67031.28;;;17.64;100.00
37132;BME280;23035;50.032;21.978;2023-07-20T06:45:28;67047.56;;;17.82;100.00
37132;BME280;23035;50.032;21.978;2023-07-20T06:50:33;66973.06;;;17.09;100.00
37132;BME280;23035;50.032;21.978;2023-07-20T06:55:38;66947.19;;;16.84;100.00
37132;BME280;23035;50.032;21.978;2023-07-20T07:00:44;66940.66;;;16.76;100.00
37132;BME280;23035;50.032;21.978;2023-07-20T07:05:48;66873.44;;;16.17;100.00
37132;BME280;23035;50.032;21.978;2023-07-20T07:10:54;66918.69;;;16.60;100.00
37132;BME280;23035;50.032;21.978;2023-07-20T07:15:58;66836.22;;;15.80;100.00
37132;BME280;23035;50.032;21.978;2023-07-20T07:21:04;66832.38;;;15.73;100.00
37132;BME280;23035;50.032;21.978;2023-07-20T07:26:11;66907.84;;;16.47;100.00
37132;BME280;23035;50.032;21.978;2023-07-20T07:31:15;66932.63;;;16.71;100.00
37132;BME280;23035;50.032;21.978;2023-07-20T07:36:19;66834.66;;;15.81;100.00
37132;BME280;23035;50.032;21.978;2023-07-20T07:41:25;66935.97;;;16.76;100.00
37132;BME280;23035;50.032;21.978;2023-07-20T07:46:29;66808.19;;;15.53;100.00
37132;BME280;23035;50.032;21.978;2023-07-20T07:51:33;66898.75;;;16.41;100.00
37132;BME280;23035;50.032;21.978;2023-07-20T07:56:38;66979.00;;;17.14;100.00
37132;BME280;23035;50.032;21.978;2023-07-20T08:01:43;66985.53;;;17.23;100.00
37132;BME280;23035;50.032;21.978;2023-07-20T08:06:47;66854.53;;;15.97;100.00
37132;BME280;23035;50.032;21.978;2023-07-20T08:11:52;66848.69;;;15.94;100.00
37132;BME280;23035;50.032;21.978;2023-07-20T08:16:56;66890.53;;;16.28;100.00
37132;BME280;23035;50.032;21.978;2023-07-20T08:22:01;66861.53;;;16.03;100.00
37132;BME280;23035;50.032;21.978;2023-07-20T08:27:07;66955.28;;;16.92;100.00
37132;BME280;23035;50.032;21.978;2023-07-20T08:32:10;66964.53;;;17.03;100.00
37132;BME280;23035;50.032;21.978;2023-07-20T08:37:16;66996.25;;;17.31;100.00
37132;BME280;23035;50.032;21.978;2023-07-20T08:42:22;66956.91;;;16.94;100.00
37132;BME280;23035;50.032;21.978;2023-07-20T08:47:26;66955.84;;;16.92;100.00
37132;BME280;23035;50.032;21.978;2023-07-20T08:52:33;66892.22;;;16.32;100.00
37132;BME280;23035;50.032;21.978;2023-07-20T08:57:40;67089.69;;;18.24;100.00
37132;BME280;23035;50.032;21.978;2023-07-20T09:02:45;67121.31;;;18.46;100.00
37132;BME280;23035;50.032;21.978;2023-07-20T09:07:51;67209.97;;;19.35;100.00
37132;BME280;23035;50.032;21.978;2023-07-20T09:12:56;67183.53;;;19.10;100.00
37132;BME280;23035;50.032;21.978;2023-07-20T09:18:01;67222.38;;;19.46;100.00
37132;BME280;23035;50.032;21.978;2023-07-20T09:23:06;67295.88;;;20.16;100.00
37132;BME280;23035;50.032;21.978;2023-07-20T09:28:11;67308.09;;;20.20;100.00
37132;BME280;23035;50.032;21.978;2023-07-20T09:33:18;67246.19;;;19.69;100.00
37132;BME280;23035;50.032;21.978;2023-07-20T09:38:26;67291.59;;;20.14;100.00
37132;BME280;23035;50.032;21.978;2023-07-20T09:43:34;67267.78;;;19.89;100.00
37132;BME280;23035;50.032;21.978;2023-07-20T09:48:37;67269.38;;;19.91;100.00
37132;BME280;23035;50.032;21.978;2023-07-20T09:54:02;67348.28;;;20.65;100.00
37132;BME280;23035;50.032;21.978;2023-07-20T09:59:07;67402.81;;;21.14;100.00
37132;BME280;23035;50.032;21.978;2023-07-20T10:04:12;67387.78;;;21.05;100.00
37132;BME280;23035;50.032;21.978;2023-07-20T10:09:18;67396.84;;;21.08;100.00
37132;BME280;23035;50.032;21.978;2023-07-20T10:14:26;67378.06;;;20.96;100.00
37132;BME280;23035;50.032;21.978;2023-07-20T10:19:34;67490.94;;;21.97;100.00
37132;BME280;23035;50.032;21.978;2023-07-20T10:24:54;67458.50;;;21.66;100.00
37132;BME280;23035;50.032;21.978;2023-07-20T10:30:06;67477.97;;;21.85;100.00
37132;BME280;23035;50.032;21.978;2023-07-20T10:35:15;67339.16;;;20.59;100.00
37132;BME280;23035;50.032;21.978;2023-07-20T10:40:39;67402.88;;;21.16;100.00
37132;BME280;23035;50.032;21.978;2023-07-20T10:45:50;67539.66;;;22.43;100.00
37132;BME280;23035;50.032;21.978;2023-07-20T10:51:12;67745.94;;;24.37;85.98
37132;BME280;23035;50.032;21.978;2023-07-20T10:56:20;67484.03;;;21.95;93.90
37132;BME280;23035;50.032;21.978;2023-07-20T11:01:30;67472.03;;;21.79;100.00
37132;BME280;23035;50.032;21.978;2023-07-20T11:06:35;67551.13;;;22.58;97.31
37132;BME280;23035;50.032;21.978;2023-07-20T11:11:41;67601.91;;;23.01;95.08
37132;BME280;23035;50.032;21.978;2023-07-20T11:16:49;67498.03;;;22.06;95.37
37132;BME280;23035;50.032;21.978;2023-07-20T11:21:54;67539.75;;;22.48;93.72
37132;BME280;23035;50.032;21.978;2023-07-20T11:27:05;67557.50;;;22.59;90.95
37132;BME280;23035;50.032;21.978;2023-07-20T11:32:11;67584.63;;;22.87;85.84
37132;BME280;23035;50.032;21.978;2023-07-20T11:37:15;67620.41;;;23.24;88.81
37132;BME280;23035;50.032;21.978;2023-07-20T11:42:19;67768.66;;;24.55;76.47
37132;BME280;23035;50.032;21.978;2023-07-20T11:47:30;67691.72;;;23.83;78.26
37132;BME280;23035;50.032;21.978;2023-07-20T11:52:34;67779.66;;;24.73;70.13
37132;BME280;23035;50.032;21.978;2023-07-20T11:57:38;68027.38;;;27.01;63.49
37132;BME280;23035;50.032;21.978;2023-07-20T12:02:44;67743.75;;;24.32;69.62
37132;BME280;23035;50.032;21.978;2023-07-20T12:07:49;67596.53;;;22.99;78.90
37132;BME280;23035;50.032;21.978;2023-07-20T12:12:54;67705.44;;;24.03;76.33
37132;BME280;23035;50.032;21.978;2023-07-20T12:18:05;67889.66;;;25.74;66.83
37132;BME280;23035;50.032;21.978;2023-07-20T12:23:11;67890.16;;;25.72;63.90
37132;BME280;23035;50.032;21.978;2023-07-20T12:28:18;67644.75;;;23.46;70.91
37132;BME280;23035;50.032;21.978;2023-07-20T12:33:24;67723.19;;;24.15;69.80
37132;BME280;23035;50.032;21.978;2023-07-20T12:38:29;67823.00;;;25.14;68.12
37132;BME280;23035;50.032;21.978;2023-07-20T12:43:40;67810.97;;;24.98;64.08
37132;BME280;23035;50.032;21.978;2023-07-20T12:48:45;67871.22;;;25.57;64.76
37132;BME280;23035;50.032;21.978;2023-07-20T12:53:51;67843.06;;;25.33;65.01
37132;BME280;23035;50.032;21.978;2023-07-20T12:58:55;67861.53;;;25.53;62.63
37132;BME280;23035;50.032;21.978;2023-07-20T13:04:00;67842.47;;;25.30;66.43
37132;BME280;23035;50.032;21.978;2023-07-20T13:09:07;67717.16;;;24.07;71.65
37132;BME280;23035;50.032;21.978;2023-07-20T13:14:11;67912.53;;;26.00;65.10
37132;BME280;23035;50.032;21.978;2023-07-20T13:19:19;67890.06;;;25.69;63.96
37132;BME280;23035;50.032;21.978;2023-07-20T13:24:23;67931.50;;;26.18;61.87
37132;BME280;23035;50.032;21.978;2023-07-20T13:29:27;68035.69;;;27.16;56.65
37132;BME280;23035;50.032;21.978;2023-07-20T13:34:32;68178.97;;;28.48;54.65
37132;BME280;23035;50.032;21.978;2023-07-20T13:39:42;67865.81;;;25.54;62.06
37132;BME280;23035;50.032;21.978;2023-07-20T13:44:46;67892.91;;;25.77;61.98
37132;BME280;23035;50.032;21.978;2023-07-20T13:49:51;67991.09;;;26.69;59.91
37132;BME280;23035;50.032;21.978;2023-07-20T13:55:06;68165.91;;;28.33;54.29
37132;BME280;23035;50.032;21.978;2023-07-20T14:00:11;68073.63;;;27.49;56.31
37132;BME280;23035;50.032;21.978;2023-07-20T14:05:21;67939.56;;;26.23;62.54
37132;BME280;23035;50.032;21.978;2023-07-20T14:10:28;67695.13;;;23.94;72.63
37132;BME280;23035;50.032;21.978;2023-07-20T14:15:32;67758.53;;;24.53;72.17
37132;BME280;23035;50.032;21.978;2023-07-20T14:20:37;67995.47;;;26.76;62.93
37132;BME280;23035;50.032;21.978;2023-07-20T14:25:41;68076.94;;;27.55;57.90
37132;BME280;23035;50.032;21.978;2023-07-20T14:30:45;68024.28;;;27.05;63.96
37132;BME280;23035;50.032;21.978;2023-07-20T14:35:51;67955.81;;;26.36;65.78
37132;BME280;23035;50.032;21.978;2023-07-20T14:40:56;67841.94;;;25.29;74.02
37132;BME280;23035;50.032;21.978;2023-07-20T14:46:00;67912.41;;;25.95;71.11
37132;BME280;23035;50.032;21.978;2023-07-20T14:51:05;68018.22;;;26.95;65.91
37132;BME280;23035;50.032;21.978;2023-07-20T14:56:09;67889.75;;;25.79;68.58
37132;BME280;23035;50.032;21.978;2023-07-20T15:01:14;67958.53;;;26.39;67.42
37132;BME280;23035;50.032;21.978;2023-07-20T15:06:19;67993.19;;;26.69;65.66
37132;BME280;23035;50.032;21.978;2023-07-20T15:11:23;68156.19;;;28.29;61.02
37132;BME280;23035;50.032;21.978;2023-07-20T15:16:28;68145.81;;;28.17;58.31
37132;BME280;23035;50.032;21.978;2023-07-20T15:21:33;68102.41;;;27.76;61.04
37132;BME280;23035;50.032;21.978;2023-07-20T15:26:37;67935.84;;;26.22;70.37
37132;BME280;23035;50.032;21.978;2023-07-20T15:31:43;67881.56;;;25.69;72.09
37132;BME280;23035;50.032;21.978;2023-07-20T15:36:51;67943.81;;;26.22;71.84
37132;BME280;23035;50.032;21.978;2023-07-20T15:41:55;67830.00;;;25.18;75.82
37132;BME280;23035;50.032;21.978;2023-07-20T15:46:59;67767.16;;;24.59;79.06
37132;BME280;23035;50.032;21.978;2023-07-20T15:52:05;67696.22;;;23.95;85.73
37132;BME280;23035;50.032;21.978;2023-07-20T15:57:09;67597.03;;;22.97;94.73
37132;BME280;23035;50.032;21.978;2023-07-20T16:02:13;67552.69;;;22.57;98.38
37132;BME280;23035;50.032;21.978;2023-07-20T16:07:19;67490.41;;;21.96;100.00
37132;BME280;23035;50.032;21.978;2023-07-20T16:12:23;67289.31;;;20.07;100.00
37132;BME280;23035;50.032;21.978;2023-07-20T16:17:28;67239.69;;;19.63;100.00
37132;BME280;23035;50.032;21.978;2023-07-20T16:22:33;67306.59;;;20.23;100.00
37132;BME280;23035;50.032;21.978;2023-07-20T16:27:37;67163.16;;;18.96;100.00
37132;BME280;23035;50.032;21.978;2023-07-20T16:32:41;67157.56;;;18.83;100.00
37132;BME280;23035;50.032;21.978;2023-07-20T16:37:50;67240.78;;;19.64;100.00
37132;BME280;23035;50.032;21.978;2023-07-20T16:42:57;67296.88;;;20.14;100.00
37132;BME280;23035;50.032;21.978;2023-07-20T16:48:06;67256.34;;;19.76;100.00
37132;BME280;23035;50.032;21.978;2023-07-20T16:53:13;67230.50;;;19.54;100.00
37132;BME280;23035;50.032;21.978;2023-07-20T16:58:17;67190.53;;;19.16;100.00
37132;BME280;23035;50.032;21.978;2023-07-20T17:03:21;67186.22;;;19.12;100.00
37132;BME280;23035;50.032;21.978;2023-07-20T17:08:27;67126.84;;;18.56;100.00
37132;BME280;23035;50.032;21.978;2023-07-20T17:13:31;67126.25;;;18.53;100.00
37132;BME280;23035;50.032;21.978;2023-07-20T17:18:35;67079.31;;;18.09;100.00
37132;BME280;23035;50.032;21.978;2023-07-20T17:23:41;67043.78;;;17.78;100.00
37132;BME280;23035;50.032;21.978;2023-07-20T17:28:48;67079.84;;;18.10;100.00
37132;BME280;23035;50.032;21.978;2023-07-20T17:33:52;67030.22;;;17.63;100.00
37132;BME280;23035;50.032;21.978;2023-07-20T17:38:57;67056.72;;;17.90;100.00
37132;BME280;23035;50.032;21.978;2023-07-20T17:44:01;67010.34;;;17.46;100.00
37132;BME280;23035;50.032;21.978;2023-07-20T17:49:07;67035.69;;;17.70;100.00
37132;BME280;23035;50.032;21.978;2023-07-20T17:54:13;67061.03;;;17.94;100.00
37132;BME280;23035;50.032;21.978;2023-07-20T17:59:17;67020.56;;;17.56;100.00
37132;BME280;23035;50.032;21.978;2023-07-20T18:04:23;67047.03;;;17.81;100.00
37132;BME280;23035;50.032;21.978;2023-07-20T18:09:28;67035.16;;;17.70;100.00
37132;BME280;23035;50.032;21.978;2023-07-20T18:14:32;67024.91;;;17.60;100.00
37132;BME280;23035;50.032;21.978;2023-07-20T18:19:36;67007.09;;;17.43;100.00
37132;BME280;23035;50.032;21.978;2023-07-20T18:24:41;66994.72;;;17.32;100.00
37132;BME280;23035;50.032;21.978;2023-07-20T18:29:45;67021.53;;;17.52;100.00
37132;BME280;23035;50.032;21.978;2023-07-20T18:34:49;67060.34;;;17.89;100.00
37132;BME280;23035;50.032;21.978;2023-07-20T18:39:54;67010.88;;;17.47;100.00
37132;BME280;23035;50.032;21.978;2023-07-20T18:44:58;67038.88;;;17.71;100.00
37132;BME280;23035;50.032;21.978;2023-07-20T18:50:02;67053.91;;;17.83;100.00
37132;BME280;23035;50.032;21.978;2023-07-20T18:55:08;67082.56;;;18.12;100.00
37132;BME280;23035;50.032;21.978;2023-07-20T19:00:13;67111.28;;;18.44;100.00
37132;BME280;23035;50.032;21.978;2023-07-20T19:05:20;67092.31;;;18.24;100.00
37132;BME280;23035;50.032;21.978;2023-07-20T19:10:25;67121.47;;;18.51;100.00
37132;BME280;23035;50.032;21.978;2023-07-20T19:15:51;67189.47;;;19.15;100.00
37132;BME280;23035;50.032;21.978;2023-07-20T19:20:59;67142.53;;;18.71;100.00
37132;BME280;23035;50.032;21.978;2023-07-20T19:26:06;67128.41;;;18.55;100.00
37132;BME280;23035;50.032;21.978;2023-07-20T19:31:10;67132.63;;;18.57;100.00
37132;BME280;23035;50.032;21.978;2023-07-20T19:36:14;67078.31;;;18.11;100.00
37132;BME280;23035;50.032;21.978;2023-07-20T19:41:19;67072.31;;;18.02;100.00
37132;BME280;23035;50.032;21.978;2023-07-20T19:46:23;66989.31;;;17.27;100.00
37132;BME280;23035;50.032;21.978;2023-07-20T19:51:28;67025.97;;;17.61;100.00
37132;BME280;23035;50.032;21.978;2023-07-20T19:56:33;66859.97;;;16.04;100.00
37132;BME280;23035;50.032;21.978;2023-07-20T20:01:46;66862.50;;;16.02;100.00
37132;BME280;23035;50.032;21.978;2023-07-20T20:06:50;66862.59;;;16.04;100.00
37132;BME280;23035;50.032;21.978;2023-07-20T20:11:56;66871.28;;;16.15;100.00
37132;BME280;23035;50.032;21.978;2023-07-20T20:16:59;66921.47;;;16.65;100.00
37132;BME280;23035;50.032;21.978;2023-07-20T20:22:06;66812.56;;;15.60;100.00
37132;BME280;23035;50.032;21.978;2023-07-20T20:27:14;66684.78;;;14.31;100.00
37132;BME280;23035;50.032;21.978;2023-07-20T20:32:18;66669.34;;;14.22;100.00
37132;BME280;23035;50.032;21.978;2023-07-20T20:37:22;66738.69;;;14.85;100.00
37132;BME280;23035;50.032;21.978;2023-07-20T20:42:28;66860.38;;;16.00;100.00
37132;BME280;23035;50.032;21.978;2023-07-20T20:47:32;66810.03;;;15.62;100.00
37132;BME280;23035;50.032;21.978;2023-07-20T20:52:39;66720.47;;;14.70;100.00
37132;BME280;23035;50.032;21.978;2023-07-20T20:57:46;66647.28;;;14.01;100.00
37132;BME280;23035;50.032;21.978;2023-07-20T21:02:51;66785.56;;;15.32;100.00
37132;BME280;23035;50.032;21.978;2023-07-20T21:07:55;66720.47;;;14.70;100.00
37132;BME280;23035;50.032;21.978;2023-07-20T21:13:02;66763.13;;;15.15;100.00
37132;BME280;23035;50.032;21.978;2023-07-20T21:18:07;66806.13;;;15.54;100.00
37132;BME280;23035;50.032;21.978;2023-07-20T21:23:11;66857.81;;;16.02;100.00
37132;BME280;23035;50.032;21.978;2023-07-20T21:28:17;66882.00;;;16.23;100.00
37132;BME280;23035;50.032;21.978;2023-07-20T21:33:24;66956.44;;;16.96;100.00
37132;BME280;23035;50.032;21.978;2023-07-20T21:38:28;66898.09;;;16.35;100.00
37132;BME280;23035;50.032;21.978;2023-07-20T21:43:34;66980.69;;;17.18;100.00
37132;BME280;23035;50.032;21.978;2023-07-20T21:48:38;66927.78;;;16.66;100.00
37132;BME280;23035;50.032;21.978;2023-07-20T21:53:43;66907.38;;;16.49;100.00
37132;BME280;23035;50.032;21.978;2023-07-20T21:58:48;66876.75;;;16.23;100.00
37132;BME280;23035;50.032;21.978;2023-07-20T22:03:52;66884.22;;;16.27;100.00
37132;BME280;23035;50.032;21.978;2023-07-20T22:08:56;66848.69;;;15.94;100.00
37132;BME280;23035;50.032;21.978;2023-07-20T22:14:01;66901.38;;;16.41;100.00
37132;BME280;23035;50.032;21.978;2023-07-20T22:19:05;66899.75;;;16.40;100.00
37132;BME280;23035;50.032;21.978;2023-07-20T22:24:09;66878.22;;;16.19;100.00
37132;BME280;23035;50.032;21.978;2023-07-20T22:29:15;66799.13;;;15.47;100.00
37132;BME280;23035;50.032;21.978;2023-07-20T22:34:19;66840.53;;;15.84;100.00
37132;BME280;23035;50.032;21.978;2023-07-20T22:39:22;66891.59;;;16.29;100.00
37132;BME280;23035;50.032;21.978;2023-07-20T22:44:28;66877.06;;;16.16;100.00
37132;BME280;23035;50.032;21.978;2023-07-20T22:49:31;66784.66;;;15.36;100.00
37132;BME280;23035;50.032;21.978;2023-07-20T22:54:36;66884.16;;;16.25;100.00
37132;BME280;23035;50.032;21.978;2023-07-20T22:59:42;66859.28;;;15.99;100.00
37132;BME280;23035;50.032;21.978;2023-07-20T23:04:46;66785.56;;;15.32;100.00
37132;BME280;23035;50.032;21.978;2023-07-20T23:09:50;66799.66;;;15.47;100.00
37132;BME280;23035;50.032;21.978;2023-07-20T23:14:55;66763.59;;;15.13;100.00
37132;BME280;23035;50.032;21.978;2023-07-20T23:19:59;66695.19;;;14.46;100.00
37132;BME280;23035;50.032;21.978;2023-07-20T23:25:04;66823.28;;;15.67;100.00
37132;BME280;23035;50.032;21.978;2023-07-20T23:30:12;66847.03;;;15.92;100.00
37132;BME280;23035;50.032;21.978;2023-07-20T23:35:16;66870.75;;;16.15;100.00
37132;BME280;23035;50.032;21.978;2023-07-20T23:40:22;66839.44;;;15.83;100.00
37132;BME280;23035;50.032;21.978;2023-07-20T23:45:28;66881.91;;;16.20;100.00
37132;BME280;23035;50.032;21.978;2023-07-20T23:50:32;66827.69;;;15.74;100.00
37132;BME280;23035;50.032;21.978;2023-07-20T23:55:36;66804.41;;;15.49;100.00
